Time;durP1;ratioP1;P1;durP2;ratioP2;P2;SDS_P1;SDS_P2;PMS_P1;PMS_P2;Temp;Humidity;BMP_temperature;BMP_pressure;BME280_temperature;BME280_humidity;BME280_pressure;Samples;Min_cycle;Max_cycle;Signal;HPM_P1;HPM_P2
2022/03/31 00:00:49;;;;;;;0.40;0.30;;;;;;;4.75;61.81;99932.91;5054974;28;20459;-76
2022/03/31 00:03:17;;;;;;;0.83;0.80;;;;;;;4.69;61.68;99942.09;5055891;28;20858;-76
2022/03/31 00:05:45;;;;;;;0.40;0.30;;;;;;;4.70;61.77;99932.94;5055117;28;20434;-76
2022/03/31 00:08:14;;;;;;;0.40;0.30;;;;;;;4.56;62.43;99934.66;5055631;28;20474;-76
2022/03/31 00:10:42;;;;;;;0.40;0.30;;;;;;;4.57;62.80;99933.56;5054557;28;20490;-75
2022/03/31 00:13:12;;;;;;;0.40;0.30;;;;;;;4.58;62.53;99945.88;5054607;28;20482;-75
2022/03/31 00:15:39;;;;;;;0.40;0.30;;;;;;;4.51;63.06;99940.00;5056116;28;20434;-75
2022/03/31 00:18:07;;;;;;;0.40;0.30;;;;;;;4.48;62.86;99935.22;5055986;28;20952;-75
2022/03/31 00:20:34;;;;;;;0.40;0.30;;;;;;;4.42;63.22;99944.34;5055250;28;20868;-76
2022/03/31 00:23:00;;;;;;;0.40;0.30;;;;;;;4.43;62.84;99943.31;5054169;28;20446;-76
2022/03/31 00:25:27;;;;;;;0.40;0.30;;;;;;;4.39;62.49;99943.03;5054185;28;20490;-78
2022/03/31 00:27:56;;;;;;;0.40;0.30;;;;;;;4.43;62.22;99943.31;5053886;28;20496;-77
2022/03/31 00:30:25;;;;;;;0.40;0.30;;;;;;;4.49;61.97;99947.56;5053889;28;20462;-77
2022/03/31 00:32:52;;;;;;;0.40;0.30;;;;;;;4.41;62.08;99940.06;5053779;28;20462;-75
2022/03/31 00:35:19;;;;;;;0.40;0.30;;;;;;;4.32;61.90;99939.06;5053895;28;20564;-76
2022/03/31 00:37:47;;;;;;;0.40;0.30;;;;;;;4.39;61.92;99939.56;5053947;28;20450;-76
2022/03/31 00:40:16;;;;;;;0.40;0.30;;;;;;;4.34;62.08;99935.03;5086296;22;20852;-73
2022/03/31 00:42:44;;;;;;;0.40;0.30;;;;;;;4.29;61.70;99935.84;5073256;28;20489;-73
2022/03/31 00:45:14;;;;;;;0.40;0.30;;;;;;;4.33;62.27;99929.94;5073206;28;20437;-73
2022/03/31 00:47:42;;;;;;;0.47;0.40;;;;;;;4.33;62.59;99935.28;5072952;28;20960;-73
2022/03/31 00:50:10;;;;;;;0.63;0.63;;;;;;;4.23;62.69;99938.81;5072934;28;20859;-73
2022/03/31 00:52:37;;;;;;;0.40;0.30;;;;;;;4.26;62.08;99933.72;5073197;28;20511;-73
2022/03/31 00:55:04;;;;;;;1.17;1.17;;;;;;;4.20;62.08;99929.44;5073253;28;20817;-73
2022/03/31 00:57:31;;;;;;;0.40;0.30;;;;;;;4.17;62.33;99937.25;5072863;28;20849;-71
2022/03/31 00:59:58;;;;;;;0.40;0.30;;;;;;;4.10;62.62;99929.50;5072804;28;20847;-73
2022/03/31 01:02:30;;;;;;;0.40;0.30;;;;;;;4.15;62.34;99926.78;5073174;28;20484;-73
2022/03/31 01:05:00;;;;;;;0.40;0.30;;;;;;;4.08;61.83;99937.00;5073140;28;20436;-73
2022/03/31 01:07:26;;;;;;;0.40;0.30;;;;;;;3.92;61.39;99930.91;5073125;28;20483;-73
2022/03/31 01:09:53;;;;;;;0.40;0.30;;;;;;;3.85;61.90;99924.22;5073078;28;20445;-73
2022/03/31 01:12:19;;;;;;;0.40;0.30;;;;;;;3.76;61.40;99924.78;5072719;28;20955;-73
2022/03/31 01:14:46;;;;;;;0.40;0.30;;;;;;;3.75;62.22;99920.50;5073069;28;20450;-72
2022/03/31 01:17:12;;;;;;;0.70;0.70;;;;;;;3.71;61.86;99922.09;5072788;28;20905;-73
2022/03/31 01:19:39;;;;;;;0.40;0.30;;;;;;;3.71;61.62;99918.63;5072955;28;20433;-73
2022/03/31 01:22:07;;;;;;;0.40;0.30;;;;;;;3.69;61.10;99937.66;5072841;28;20485;-73
2022/03/31 01:24:36;;;;;;;0.40;0.30;;;;;;;3.69;61.82;99926.94;5072863;28;20451;-73
2022/03/31 01:27:02;;;;;;;0.40;0.30;;;;;;;3.61;62.03;99926.69;5072889;28;20445;-73
2022/03/31 01:29:29;;;;;;;0.40;0.30;;;;;;;3.54;61.89;99929.63;5072859;28;20445;-73
2022/03/31 01:31:57;;;;;;;0.40;0.30;;;;;;;3.59;61.52;99932.31;5072665;28;20441;-72
2022/03/31 01:34:24;;;;;;;0.40;0.30;;;;;;;3.48;62.59;99928.03;5072629;28;20826;-73
2022/03/31 01:36:50;;;;;;;0.40;0.30;;;;;;;3.44;62.58;99929.66;5072636;28;20448;-74
2022/03/31 01:39:17;;;;;;;0.40;0.30;;;;;;;3.41;62.28;99932.88;5072281;28;20449;-71
2022/03/31 01:41:44;;;;;;;0.40;0.30;;;;;;;3.34;62.54;99921.66;5072133;28;20485;-71
2022/03/31 01:44:11;;;;;;;0.40;0.30;;;;;;;3.40;62.86;99925.91;5075035;28;20465;-72
2022/03/31 01:46:37;;;;;;;0.40;0.30;;;;;;;3.44;62.64;99929.66;5076349;28;20445;-71
2022/03/31 01:49:04;;;;;;;0.40;0.30;;;;;;;3.38;62.48;99930.75;5076321;28;20441;-71
2022/03/31 01:51:30;;;;;;;0.40;0.40;;;;;;;3.28;63.11;99924.34;5076271;28;20436;-71
2022/03/31 01:53:56;;;;;;;0.40;0.30;;;;;;;3.30;62.75;99929.41;5076198;28;20457;-71
2022/03/31 01:56:23;;;;;;;0.40;0.30;;;;;;;3.36;62.62;99930.19;5075888;28;20444;-71
2022/03/31 01:58:51;;;;;;;0.40;0.30;;;;;;;3.38;62.79;99936.09;5076093;28;20452;-71
2022/03/31 02:01:17;;;;;;;0.40;0.30;;;;;;;3.34;62.59;99935.03;5076019;28;20534;-72
2022/03/31 02:03:43;;;;;;;0.40;0.30;;;;;;;3.24;62.75;99931.28;5075944;28;20469;-72
2022/03/31 02:06:10;;;;;;;0.40;0.30;;;;;;;3.16;63.07;99931.03;5076020;28;20445;-71
2022/03/31 02:08:36;;;;;;;0.40;0.30;;;;;;;3.25;63.18;99929.41;5075698;28;20456;-72
2022/03/31 02:11:03;;;;;;;0.40;0.30;;;;;;;3.18;62.61;99926.19;5075966;28;20437;-71
2022/03/31 02:13:30;;;;;;;2.10;2.00;;;;;;;3.15;63.47;99932.09;5075779;28;20465;-71
2022/03/31 02:15:58;;;;;;;0.40;0.30;;;;;;;3.11;62.51;99933.72;5075918;28;20524;-71
2022/03/31 02:18:25;;;;;;;0.40;0.30;;;;;;;2.98;62.21;99935.03;5075916;28;20445;-71
2022/03/31 02:20:51;;;;;;;0.40;0.30;;;;;;;3.02;62.37;99941.47;5075458;28;20902;-72
2022/03/31 02:23:18;;;;;;;0.40;0.30;;;;;;;2.96;63.11;99934.47;5075648;28;20456;-71
2022/03/31 02:25:45;;;;;;;0.40;0.30;;;;;;;2.92;62.74;99944.09;5075330;28;20476;-71
2022/03/31 02:28:12;;;;;;;0.40;0.30;;;;;;;2.91;63.17;99945.19;5075491;28;20449;-71
2022/03/31 02:30:39;;;;;;;0.40;0.30;;;;;;;2.93;62.29;99937.72;5075665;28;20539;-72
2022/03/31 02:33:07;;;;;;;0.40;0.30;;;;;;;2.86;62.49;99937.97;5075537;28;20457;-71
2022/03/31 02:35:33;;;;;;;0.40;0.30;;;;;;;2.91;63.12;99937.16;5075813;28;20449;-71
2022/03/31 02:38:00;;;;;;;1.33;1.23;;;;;;;2.85;62.67;99940.91;5075520;28;20441;-71
2022/03/31 02:40:26;;;;;;;0.40;0.30;;;;;;;2.83;63.33;99935.81;5075170;28;20457;-71
2022/03/31 02:42:53;;;;;;;0.40;0.30;;;;;;;2.74;63.19;99934.72;5075383;28;20850;-71
2022/03/31 02:45:20;;;;;;;0.40;0.30;;;;;;;2.77;63.04;99942.22;5075344;28;20469;-71
2022/03/31 02:47:47;;;;;;;0.40;0.30;;;;;;;2.72;62.55;99939.53;5075290;28;20448;-71
2022/03/31 02:50:17;;;;;;;0.40;0.30;;;;;;;2.61;63.27;99928.03;5075299;28;20449;-71
2022/03/31 02:55:29;;;;;;;0.40;0.30;;;;;;;2.54;63.46;99924.81;5073851;28;20402;-71
2022/03/31 02:57:57;;;;;;;0.40;0.30;;;;;;;2.56;64.05;99932.56;5075172;28;20441;-71
2022/03/31 03:00:23;;;;;;;0.40;0.30;;;;;;;2.51;63.38;99934.16;5075029;28;20441;-70
2022/03/31 03:02:50;;;;;;;2.50;2.30;;;;;;;2.56;64.17;99927.22;5074675;28;20465;-73
2022/03/31 03:05:18;;;;;;;0.40;0.30;;;;;;;2.59;63.68;99927.50;5074728;28;20962;-69
2022/03/31 03:07:45;;;;;;;0.40;0.30;;;;;;;2.59;64.08;99932.84;5074656;28;20449;-73
2022/03/31 03:10:13;;;;;;;0.40;0.30;;;;;;;2.57;64.04;99944.84;5074864;28;20487;-73
2022/03/31 03:12:41;;;;;;;0.40;0.30;;;;;;;2.60;64.26;99934.44;5074719;28;20465;-72
2022/03/31 03:15:08;;;;;;;0.40;0.30;;;;;;;2.45;64.74;99934.41;5074781;28;20437;-72
2022/03/31 03:17:35;;;;;;;0.60;0.60;;;;;;;2.47;64.46;99930.38;5074830;28;20532;-72
2022/03/31 03:20:01;;;;;;;10.90;10.43;;;;;;;2.50;65.09;99934.41;5074682;28;20468;-72
2022/03/31 03:22:29;;;;;;;0.40;0.30;;;;;;;2.53;64.60;99932.03;5074566;28;20485;-72
2022/03/31 03:24:55;;;;;;;0.40;0.30;;;;;;;2.52;63.26;99940.28;5074585;28;20454;-72
2022/03/31 03:27:22;;;;;;;0.40;0.30;;;;;;;2.48;63.01;99932.03;5074536;28;20445;-72
2022/03/31 03:29:48;;;;;;;0.40;0.30;;;;;;;2.41;62.93;99936.78;5074480;28;20456;-72
2022/03/31 03:32:16;;;;;;;0.40;0.30;;;;;;;2.33;63.09;99936.50;5074342;28;20512;-72
2022/03/31 03:34:42;;;;;;;0.40;0.30;;;;;;;2.27;63.25;99931.16;5074470;28;20441;-71
2022/03/31 03:37:09;;;;;;;0.40;0.30;;;;;;;2.19;62.97;99931.66;5074394;28;20449;-72
2022/03/31 03:39:37;;;;;;;0.40;0.30;;;;;;;2.21;63.69;99924.19;5074109;28;20459;-72
2022/03/31 03:42:04;;;;;;;0.40;0.30;;;;;;;2.15;62.70;99921.75;5074321;28;20472;-72
2022/03/31 03:44:30;;;;;;;0.40;0.30;;;;;;;2.18;63.63;99919.34;5074190;28;20461;-71
2022/03/31 03:46:57;;;;;;;0.40;0.30;;;;;;;2.16;63.67;99921.47;5074258;28;20449;-72
2022/03/31 03:49:23;;;;;;;0.40;0.30;;;;;;;2.15;63.17;99922.53;5074279;28;20481;-72
2022/03/31 03:51:50;;;;;;;4.83;4.53;;;;;;;2.10;62.93;99930.53;5074167;28;20438;-71
2022/03/31 03:54:16;;;;;;;1.80;1.70;;;;;;;1.98;62.94;99921.94;5074065;28;20497;-71
2022/03/31 03:56:44;;;;;;;0.40;0.30;;;;;;;1.94;63.05;99918.97;5074047;28;20449;-69
2022/03/31 03:59:10;;;;;;;0.53;0.53;;;;;;;2.01;63.90;99926.78;5074015;28;20455;-70
2022/03/31 04:01:37;;;;;;;0.40;0.30;;;;;;;1.96;62.38;99919.53;5073900;28;20481;-70
2022/03/31 04:04:04;;;;;;;0.40;0.30;;;;;;;1.96;63.24;99913.41;5073705;28;20861;-69
2022/03/31 04:06:31;;;;;;;0.40;0.30;;;;;;;1.92;63.35;99917.66;5073472;28;20821;-73
2022/03/31 04:08:57;;;;;;;0.40;0.30;;;;;;;1.94;63.46;99904.81;5073949;28;20472;-72
2022/03/31 04:11:24;;;;;;;0.40;0.30;;;;;;;1.92;62.50;99904.28;5073458;28;21045;-72
2022/03/31 04:13:51;;;;;;;0.40;0.30;;;;;;;1.93;62.57;99897.88;5073555;28;20461;-72
2022/03/31 04:16:18;;;;;;;0.40;0.30;;;;;;;1.91;63.30;99908.84;5073622;28;20487;-72
2022/03/31 04:18:44;;;;;;;0.40;0.30;;;;;;;1.94;63.63;99910.16;5073615;28;20456;-72
2022/03/31 04:21:11;;;;;;;0.40;0.30;;;;;;;1.94;63.75;99910.97;5073390;28;21018;-72
2022/03/31 04:23:38;;;;;;;0.40;0.30;;;;;;;1.93;62.95;99916.56;5073054;28;20476;-72
2022/03/31 04:26:04;;;;;;;0.40;0.30;;;;;;;1.93;63.69;99911.25;5073485;28;20460;-72
2022/03/31 04:28:30;;;;;;;0.40;0.30;;;;;;;1.90;63.08;99911.75;5073413;28;20445;-71
2022/03/31 04:30:58;;;;;;;0.40;0.30;;;;;;;1.89;63.47;99913.63;5073362;28;20449;-73
2022/03/31 04:33:26;;;;;;;0.40;0.30;;;;;;;1.75;63.60;99917.81;5073279;28;20469;-73
2022/03/31 04:35:52;;;;;;;0.40;0.30;;;;;;;1.69;63.13;99911.66;5073299;28;20540;-77
2022/03/31 04:38:19;;;;;;;0.40;0.30;;;;;;;1.64;64.29;99911.66;5073165;28;20444;-72
2022/03/31 04:40:45;;;;;;;0.40;0.30;;;;;;;1.68;64.90;99917.25;5072904;28;20814;-73
2022/03/31 04:43:12;;;;;;;0.40;0.30;;;;;;;1.67;64.05;99916.44;5073399;28;20457;-72
2022/03/31 04:45:38;;;;;;;0.40;0.30;;;;;;;1.65;63.69;99915.09;5073280;28;20442;-72
2022/03/31 04:48:06;;;;;;;0.40;0.30;;;;;;;1.69;63.78;99922.34;5073256;28;20441;-73
2022/03/31 04:50:33;;;;;;;0.40;0.30;;;;;;;1.66;63.96;99925.53;5073255;28;20444;-73
2022/03/31 04:52:59;;;;;;;0.40;0.30;;;;;;;1.65;63.51;99920.44;5072892;28;20518;-72
2022/03/31 04:55:26;;;;;;;0.40;0.30;;;;;;;1.67;64.07;99919.13;5073161;28;20452;-72
2022/03/31 04:57:52;;;;;;;0.40;0.30;;;;;;;1.67;63.81;99923.66;5073208;28;20495;-72
2022/03/31 05:00:19;;;;;;;0.40;0.30;;;;;;;1.64;63.38;99926.81;5073135;28;20444;-72
2022/03/31 05:02:45;;;;;;;0.40;0.30;;;;;;;1.63;63.35;99920.69;5072881;28;20863;-73
2022/03/31 05:05:13;;;;;;;0.40;0.30;;;;;;;1.54;63.94;99932.91;5073198;28;20476;-72
2022/03/31 05:07:40;;;;;;;0.40;0.30;;;;;;;1.49;64.44;99933.69;5073216;28;20477;-73
2022/03/31 05:10:07;;;;;;;0.40;0.30;;;;;;;1.52;64.12;99932.38;5073206;28;20465;-72
2022/03/31 05:12:34;;;;;;;0.40;0.30;;;;;;;1.50;64.03;99927.28;5072781;28;20457;-72
2022/03/31 05:15:01;;;;;;;0.40;0.30;;;;;;;1.58;63.91;99942.00;5073079;28;20453;-72
2022/03/31 05:17:32;;;;;;;0.40;0.30;;;;;;;1.52;63.88;99941.19;5072972;28;20445;-72
2022/03/31 05:19:59;;;;;;;0.40;0.30;;;;;;;1.51;64.83;99944.91;5077135;28;20422;-73
2022/03/31 05:22:26;;;;;;;0.40;0.30;;;;;;;1.54;64.14;99932.91;5077004;28;20534;-74
2022/03/31 05:24:53;;;;;;;0.40;0.30;;;;;;;1.62;64.42;99934.31;5077024;28;20441;-73
2022/03/31 05:27:19;;;;;;;0.40;0.30;;;;;;;1.55;64.45;99942.56;5076749;28;20939;-74
2022/03/31 05:29:46;;;;;;;0.40;0.30;;;;;;;1.64;64.77;99933.00;5076913;28;20436;-74
2022/03/31 05:32:12;;;;;;;3.73;3.53;;;;;;;1.52;65.24;99933.19;5076786;28;20444;-74
2022/03/31 05:34:39;;;;;;;0.40;0.30;;;;;;;1.52;64.74;99938.50;5076845;28;20437;-74
2022/03/31 05:37:05;;;;;;;0.40;0.30;;;;;;;1.52;64.20;99938.50;5076566;28;20943;-74
2022/03/31 05:39:34;;;;;;;0.73;0.73;;;;;;;1.60;63.85;99931.09;5076987;28;20436;-73
2022/03/31 05:42:00;;;;;;;0.40;0.30;;;;;;;1.60;64.06;99936.44;5076565;28;20559;-74
2022/03/31 05:44:27;;;;;;;0.40;0.30;;;;;;;1.66;63.81;99941.53;5076351;28;21022;-74
2022/03/31 05:46:53;;;;;;;0.40;0.30;;;;;;;1.59;64.32;99940.94;5076562;28;20449;-73
2022/03/31 05:49:20;;;;;;;0.40;0.30;;;;;;;1.65;64.15;99942.59;5076654;28;20437;-74
2022/03/31 05:51:47;;;;;;;0.40;0.30;;;;;;;1.69;63.66;99941.03;5076447;28;20449;-74
2022/03/31 05:54:13;;;;;;;0.40;0.30;;;;;;;1.81;64.25;99945.34;5075986;28;20970;-74
2022/03/31 05:56:43;;;;;;;0.40;0.30;;;;;;;1.81;63.73;99942.69;5076304;28;20441;-74
2022/03/31 05:59:10;;;;;;;0.40;0.30;;;;;;;1.86;63.88;99956.06;5076379;28;20522;-74
2022/03/31 06:01:37;;;;;;;0.40;0.30;;;;;;;1.82;63.44;99952.31;5076245;28;20476;-74
2022/03/31 06:04:04;;;;;;;0.40;0.30;;;;;;;1.74;63.44;99941.06;5076124;28;20468;-74
2022/03/31 06:06:30;;;;;;;0.40;0.30;;;;;;;1.74;64.38;99949.06;5076187;28;20444;-75
2022/03/31 06:08:57;;;;;;;0.40;0.30;;;;;;;1.77;63.61;99953.91;5075841;28;21005;-75
2022/03/31 06:11:23;;;;;;;0.40;0.30;;;;;;;1.80;63.63;99952.56;5076130;28;20445;-75
2022/03/31 06:13:51;;;;;;;0.40;0.30;;;;;;;1.88;63.87;99951.28;5076061;28;20470;-74
2022/03/31 06:16:18;;;;;;;0.40;0.30;;;;;;;1.84;63.09;99952.84;5076072;28;20453;-74
2022/03/31 06:18:44;;;;;;;0.40;0.30;;;;;;;1.91;62.77;99956.09;5075618;28;20856;-75
2022/03/31 06:21:11;;;;;;;0.40;0.30;;;;;;;1.90;63.62;99949.13;5076011;28;20469;-74
2022/03/31 06:23:38;;;;;;;0.40;0.30;;;;;;;1.87;62.59;99939.78;5075720;28;20484;-74
2022/03/31 06:26:04;;;;;;;0.40;0.30;;;;;;;1.95;62.85;99946.50;5075966;28;20441;-74
2022/03/31 06:28:32;;;;;;;0.40;0.30;;;;;;;1.96;62.64;99940.91;5075439;28;20449;-74
2022/03/31 06:31:01;;;;;;;0.40;0.30;;;;;;;2.03;62.94;99946.00;5075684;28;20452;-75
2022/03/31 06:33:27;;;;;;;0.40;0.30;;;;;;;2.03;62.47;99951.34;5077097;28;20882;-74
2022/03/31 06:35:53;;;;;;;0.40;0.30;;;;;;;1.99;61.96;99950.25;5075415;28;20939;-74
2022/03/31 06:38:20;;;;;;;0.40;0.30;;;;;;;2.10;62.42;99959.13;5075657;28;20494;-74
2022/03/31 06:41:06;;;;;;;0.40;0.30;;;;;;;2.22;61.88;99952.50;5075199;28;20469;-74
2022/03/31 06:43:33;;;;;;;0.40;0.30;;;;;;;2.13;61.80;99956.75;5075201;28;21058;-73
2022/03/31 06:46:01;;;;;;;0.40;0.30;;;;;;;2.20;61.91;99954.63;5075118;28;20935;-73
2022/03/31 06:48:29;;;;;;;0.40;0.30;;;;;;;2.23;61.87;99969.34;5075453;28;20469;-73
2022/03/31 06:50:56;;;;;;;0.40;0.30;;;;;;;2.25;61.72;99962.66;5075392;28;20487;-72
2022/03/31 06:53:23;;;;;;;0.40;0.30;;;;;;;2.27;60.65;99963.22;5075314;28;20478;-73
2022/03/31 06:55:50;;;;;;;0.40;0.30;;;;;;;2.37;60.56;99973.13;5075336;28;20449;-72
2022/03/31 06:58:17;;;;;;;0.40;0.30;;;;;;;2.23;60.22;99970.13;5074972;28;20445;-73
2022/03/31 07:00:44;;;;;;;0.40;0.30;;;;;;;2.28;61.04;99975.50;5075172;28;20442;-74
2022/03/31 07:03:11;;;;;;;0.40;0.30;;;;;;;2.39;60.12;99970.19;5074955;28;20489;-73
2022/03/31 07:05:38;;;;;;;0.40;0.30;;;;;;;2.55;60.11;99968.38;5075275;28;20437;-69
2022/03/31 07:08:05;;;;;;;0.40;0.30;;;;;;;2.51;60.10;99974.25;5075710;28;20486;-72
2022/03/31 07:10:32;;;;;;;0.40;0.30;;;;;;;2.48;60.66;99968.63;5075250;28;20445;-71
2022/03/31 07:13:00;;;;;;;0.40;0.30;;;;;;;2.60;60.30;99979.88;5074882;28;20464;-75
2022/03/31 07:15:27;;;;;;;0.40;0.30;;;;;;;2.60;59.60;99976.41;5074957;28;20536;-74
2022/03/31 07:17:54;;;;;;;0.40;0.30;;;;;;;2.81;59.56;99978.06;5074836;28;20452;-73
2022/03/31 07:20:22;;;;;;;0.40;0.30;;;;;;;2.90;59.50;99968.44;5074820;28;20449;-74
2022/03/31 07:22:50;;;;;;;0.40;0.30;;;;;;;2.93;58.43;99973.28;5074648;28;20543;-74
2022/03/31 07:25:17;;;;;;;0.40;0.30;;;;;;;2.92;58.83;99968.19;5074727;28;20445;-74
2022/03/31 07:27:44;;;;;;;0.40;0.30;;;;;;;2.94;58.71;99968.72;5074589;28;20448;-75
2022/03/31 07:30:12;;;;;;;0.40;0.30;;;;;;;3.04;58.68;99966.06;5074460;28;20514;-75
2022/03/31 07:32:46;;;;;;;0.40;0.30;;;;;;;3.18;58.05;99966.34;5074440;28;20527;-74
2022/03/31 07:35:13;;;;;;;0.40;0.30;;;;;;;3.19;57.70;99957.25;5074600;28;20826;-75
2022/03/31 07:37:41;;;;;;;0.40;0.30;;;;;;;3.31;58.24;99957.78;5074277;28;20453;-75
2022/03/31 07:40:08;;;;;;;0.40;0.30;;;;;;;3.33;57.52;99941.47;5074234;28;20479;-75
2022/03/31 07:42:35;;;;;;;0.40;0.30;;;;;;;3.41;57.54;99943.56;5073671;28;20492;-74
2022/03/31 07:45:01;;;;;;;0.40;0.30;;;;;;;3.54;58.04;99951.88;5074048;28;20441;-74
2022/03/31 07:47:28;;;;;;;0.40;0.30;;;;;;;3.72;58.27;99953.19;5074271;28;20453;-74
2022/03/31 07:49:54;;;;;;;0.40;0.30;;;;;;;3.79;56.29;99956.38;5074206;28;20441;-75
2022/03/31 07:52:21;;;;;;;0.40;0.30;;;;;;;3.85;56.12;99956.34;5074134;28;20444;-75
2022/03/31 07:54:50;;;;;;;0.40;0.37;;;;;;;3.84;56.89;99946.72;5074149;28;20445;-74
2022/03/31 07:57:16;;;;;;;0.40;0.30;;;;;;;3.90;56.11;99948.34;5074054;28;20441;-74
2022/03/31 07:59:43;;;;;;;0.40;0.30;;;;;;;3.95;55.48;99948.31;5074056;28;20444;-71
2022/03/31 08:02:09;;;;;;;1.43;1.33;;;;;;;4.00;55.62;99956.31;5073775;28;20446;-73
2022/03/31 08:04:36;;;;;;;0.40;0.30;;;;;;;3.95;55.23;99951.00;5073864;28;20448;-73
2022/03/31 08:07:03;;;;;;;0.40;0.30;;;;;;;3.89;55.83;99949.38;5073879;28;20438;-74
2022/03/31 08:09:29;;;;;;;0.40;0.30;;;;;;;3.91;54.95;99960.66;5073814;28;20449;-73
2022/03/31 08:11:57;;;;;;;0.40;0.30;;;;;;;3.87;55.33;99941.63;5073811;28;20449;-75
2022/03/31 08:14:23;;;;;;;0.40;0.30;;;;;;;3.89;54.94;99949.38;5073941;28;20469;-74
2022/03/31 08:16:51;;;;;;;0.57;0.57;;;;;;;3.98;55.20;99961.94;5073435;28;20491;-75
2022/03/31 08:19:19;;;;;;;0.40;0.30;;;;;;;4.09;54.79;99954.69;5073689;28;20441;-75
2022/03/31 08:21:47;;;;;;;0.40;0.30;;;;;;;4.11;54.63;99957.88;5073588;28;20452;-75
2022/03/31 08:24:15;;;;;;;0.40;0.30;;;;;;;4.16;54.40;99954.38;5073410;28;20492;-75
2022/03/31 08:26:43;;;;;;;0.40;0.30;;;;;;;4.26;53.85;99963.19;5073571;28;20814;-75
2022/03/31 08:29:12;;;;;;;0.40;0.30;;;;;;;4.32;53.92;99947.88;5073543;28;20438;-75
2022/03/31 08:31:39;;;;;;;0.40;0.30;;;;;;;4.37;54.67;99955.09;5073431;28;20448;-75
2022/03/31 08:34:07;;;;;;;0.40;0.30;;;;;;;4.42;53.33;99963.13;5073396;28;20890;-75
2022/03/31 08:36:33;;;;;;;0.40;0.30;;;;;;;4.54;53.55;99952.88;5073400;28;20445;-75
2022/03/31 08:39:00;;;;;;;0.40;0.30;;;;;;;4.53;53.51;99959.31;5073128;28;20957;-75
2022/03/31 08:41:29;;;;;;;0.40;0.30;;;;;;;4.71;54.21;99953.31;5073021;28;20481;-75
2022/03/31 08:43:56;;;;;;;0.40;0.30;;;;;;;4.91;53.29;99962.31;5073204;28;20492;-75
2022/03/31 08:46:27;;;;;;;0.40;0.30;;;;;;;4.95;52.54;99956.09;5073327;28;20441;-75
2022/03/31 08:48:56;;;;;;;0.40;0.30;;;;;;;5.07;52.18;99955.75;5073012;28;20899;-75
2022/03/31 08:51:23;;;;;;;0.40;0.30;;;;;;;5.11;51.53;99954.13;5072877;28;20854;-75
2022/03/31 08:53:50;;;;;;;0.40;0.30;;;;;;;5.19;52.24;99956.22;5072209;28;20458;-71
2022/03/31 08:56:16;;;;;;;0.40;0.30;;;;;;;5.31;52.17;99959.34;5073522;28;20468;-74
2022/03/31 08:58:43;;;;;;;0.40;0.30;;;;;;;5.36;51.96;99955.81;5072808;28;20954;-73
2022/03/31 09:01:12;;;;;;;0.40;0.30;;;;;;;5.39;51.14;99947.19;5072765;28;20934;-74
2022/03/31 09:03:41;;;;;;;0.40;0.30;;;;;;;5.49;51.43;99951.66;5072736;28;20577;-73
2022/03/31 09:06:09;;;;;;;0.40;0.30;;;;;;;5.62;51.66;99952.88;5073079;28;20445;-73
2022/03/31 09:08:36;;;;;;;0.40;0.30;;;;;;;5.68;50.33;99952.56;5072761;28;20532;-73
2022/03/31 09:11:03;;;;;;;0.40;0.30;;;;;;;5.79;51.11;99951.34;5073278;28;20491;-73
2022/03/31 09:13:31;;;;;;;0.40;0.30;;;;;;;5.88;49.58;99954.22;5072987;28;20524;-73
2022/03/31 09:16:01;;;;;;;0.40;0.30;;;;;;;6.08;50.67;99961.31;5073061;28;20452;-73
2022/03/31 09:18:29;;;;;;;0.40;0.30;;;;;;;6.11;50.43;99951.84;5073011;28;20445;-73
2022/03/31 09:20:59;;;;;;;0.40;0.30;;;;;;;6.16;49.92;99947.22;5072962;28;20483;-73
2022/03/31 09:23:27;;;;;;;0.40;0.30;;;;;;;6.19;49.58;99938.56;5072751;28;20515;-73
2022/03/31 09:26:02;;;;;;;0.40;0.30;;;;;;;6.34;50.26;99942.19;5072918;28;20607;-71
2022/03/31 09:28:28;;;;;;;0.40;0.30;;;;;;;6.46;49.66;99939.84;5072874;28;20449;-74
2022/03/31 09:30:56;;;;;;;0.40;0.30;;;;;;;6.55;50.37;99944.31;5072854;28;20445;-74
2022/03/31 09:33:32;;;;;;;0.40;0.30;;;;;;;6.61;50.20;99941.56;5072776;28;20464;-74
2022/03/31 09:36:04;;;;;;;0.50;0.40;;;;;;;6.65;49.07;99947.97;5072829;28;20425;-73
2022/03/31 09:38:35;;;;;;;0.40;0.30;;;;;;;6.72;48.53;99945.69;5072765;28;20484;-73
2022/03/31 09:41:03;;;;;;;0.40;0.30;;;;;;;6.83;49.24;99939.88;5072476;28;20465;-73
2022/03/31 09:43:38;;;;;;;0.40;0.30;;;;;;;6.98;48.99;99946.91;5072568;28;20546;-74
2022/03/31 09:46:05;;;;;;;0.40;0.30;;;;;;;7.03;48.74;99940.66;5072726;28;20429;-74
2022/03/31 09:48:31;;;;;;;0.40;0.30;;;;;;;7.17;48.79;99938.84;5072644;28;20445;-73
2022/03/31 09:50:58;;;;;;;0.40;0.30;;;;;;;7.22;48.49;99949.53;5072681;28;20452;-73
2022/03/31 09:53:30;;;;;;;0.40;0.30;;;;;;;7.28;47.69;99950.22;5072626;28;20821;-73
2022/03/31 09:55:57;;;;;;;0.40;0.30;;;;;;;7.49;48.26;99942.59;5072710;28;20859;-73
2022/03/31 09:58:24;;;;;;;0.40;0.30;;;;;;;7.60;48.43;99930.53;5072563;28;20444;-73
2022/03/31 10:00:51;;;;;;;0.40;0.30;;;;;;;7.66;47.05;99926.66;5072549;28;20468;-72
2022/03/31 10:03:18;;;;;;;0.40;0.30;;;;;;;7.56;46.47;99945.69;5072127;28;20989;-73
2022/03/31 10:05:45;;;;;;;0.40;0.30;;;;;;;7.67;47.23;99925.56;5075880;28;20496;-73
2022/03/31 10:08:12;;;;;;;0.40;0.30;;;;;;;7.77;46.79;99929.97;5075871;28;20460;-73
2022/03/31 10:10:41;;;;;;;0.40;0.30;;;;;;;7.90;46.70;99931.88;5076095;28;20445;-73
2022/03/31 10:13:15;;;;;;;0.40;0.30;;;;;;;8.00;46.04;99931.66;5075956;28;20866;-73
2022/03/31 10:15:43;;;;;;;0.40;0.30;;;;;;;8.17;46.54;99922.97;5076046;28;20434;-73
2022/03/31 10:18:13;;;;;;;1.60;1.50;;;;;;;8.01;45.63;99924.38;5075830;28;20442;-74
2022/03/31 10:20:40;;;;;;;0.40;0.30;;;;;;;8.11;45.97;99918.00;5075952;28;20430;-73
2022/03/31 10:25:53;;;;;;;0.40;0.30;;;;;;;8.42;46.14;99923.59;5075698;28;20405;-73
2022/03/31 10:28:22;;;;;;;0.40;0.30;;;;;;;8.58;45.88;99916.72;5075755;28;20445;-74
2022/03/31 10:30:56;;;;;;;0.40;0.30;;;;;;;8.62;44.53;99916.94;5075986;28;20867;-73
2022/03/31 10:33:34;;;;;;;0.40;0.30;;;;;;;8.70;45.53;99910.81;5075669;28;20461;-73
2022/03/31 10:36:05;;;;;;;5.20;2.00;;;;;;;8.73;45.95;99908.31;5075844;28;20429;-73
2022/03/31 10:38:33;;;;;;;0.40;0.30;;;;;;;8.70;44.55;99897.31;5075736;28;20487;-73
2022/03/31 10:41:08;;;;;;;0.40;0.30;;;;;;;8.87;44.50;99902.06;5075327;28;20495;-73
2022/03/31 10:43:39;;;;;;;0.40;0.30;;;;;;;8.86;44.42;99900.47;5075030;28;20986;-73
2022/03/31 10:46:15;;;;;;;0.40;0.30;;;;;;;8.79;44.93;99893.56;5075602;28;20520;-75
2022/03/31 10:48:49;;;;;;;0.40;0.30;;;;;;;8.92;44.66;99899.22;5075503;28;20504;-75
2022/03/31 10:51:15;;;;;;;0.40;0.30;;;;;;;9.04;45.17;99894.09;5075372;28;20425;-74
2022/03/31 10:53:48;;;;;;;0.40;0.30;;;;;;;9.14;43.85;99899.22;5075217;28;20453;-74
2022/03/31 10:56:24;;;;;;;0.40;0.30;;;;;;;9.31;44.05;99895.84;5075407;28;20476;-74
2022/03/31 10:58:52;;;;;;;0.40;0.30;;;;;;;9.55;44.73;99896.28;5075291;28;20429;-74
2022/03/31 11:01:19;;;;;;;0.40;0.30;;;;;;;9.58;43.70;99894.84;5075262;28;20539;-74
2022/03/31 11:03:47;;;;;;;0.40;0.30;;;;;;;9.74;44.47;99898.75;5075007;28;20488;-74
2022/03/31 11:06:13;;;;;;;0.40;0.30;;;;;;;9.93;43.30;99895.00;5075310;28;20889;-75
2022/03/31 11:08:41;;;;;;;0.40;0.30;;;;;;;9.93;43.49;99901.22;5075231;28;20445;-75
2022/03/31 11:11:08;;;;;;;0.70;0.70;;;;;;;10.15;42.94;99888.69;5075164;28;20488;-74
2022/03/31 11:13:36;;;;;;;0.40;0.27;;;;;;;10.40;42.94;99893.38;5075061;28;20461;-74
2022/03/31 11:16:04;;;;;;;0.40;0.30;;;;;;;10.62;42.22;99889.72;5073844;28;20445;-74
2022/03/31 11:18:30;;;;;;;0.40;0.30;;;;;;;10.90;41.38;99889.41;5074613;28;20966;-74
2022/03/31 11:20:58;;;;;;;0.40;0.30;;;;;;;11.05;39.67;99891.63;5074808;28;20448;-74
2022/03/31 11:23:25;;;;;;;0.40;0.27;;;;;;;11.44;39.28;99885.16;5074658;28;20481;-74
2022/03/31 11:25:52;;;;;;;0.40;0.30;;;;;;;12.07;39.23;99879.97;5074493;28;20437;-74
2022/03/31 11:28:18;;;;;;;0.40;0.30;;;;;;;12.92;37.83;99885.09;5074718;28;20445;-74
2022/03/31 11:30:48;;;;;;;0.40;0.30;;;;;;;12.70;37.72;99888.16;5074627;28;20445;-74
2022/03/31 11:33:15;;;;;;;0.40;0.30;;;;;;;13.30;36.18;99873.25;5074551;28;20461;-74
2022/03/31 11:35:42;;;;;;;6.23;3.10;;;;;;;13.16;36.13;99878.16;5074574;28;20437;-74
2022/03/31 11:38:12;;;;;;;0.40;0.30;;;;;;;13.20;36.54;99877.16;5074515;28;20448;-73
2022/03/31 11:40:43;;;;;;;0.40;0.30;;;;;;;13.92;36.33;99876.81;5074145;28;20547;-74
2022/03/31 11:43:12;;;;;;;0.40;0.30;;;;;;;13.91;35.59;99878.75;5074292;28;20484;-74
2022/03/31 11:45:42;;;;;;;0.40;0.27;;;;;;;14.23;35.20;99882.47;5074350;28;20441;-74
2022/03/31 11:48:11;;;;;;;0.40;0.30;;;;;;;14.33;35.40;99882.00;5073951;28;20955;-73